createdAt,value
2022-10-10T00:00:04.060Z,99.99
2022-10-10T00:01:03.980Z,99.99
2022-10-10T00:02:03.937Z,99.99
2022-10-10T00:03:03.815Z,99.99
2022-10-10T00:04:03.734Z,99.99
2022-10-10T00:05:03.648Z,99.99
2022-10-10T00:06:03.568Z,99.99
2022-10-10T00:07:03.488Z,99.99
2022-10-10T00:08:03.405Z,99.99
2022-10-10T00:09:03.346Z,99.99
2022-10-10T00:10:03.246Z,99.99
2022-10-10T00:11:03.158Z,99.99
2022-10-10T00:12:03.075Z,99.99
2022-10-10T00:13:02.995Z,99.99
2022-10-10T00:14:02.915Z,99.99
2022-10-10T00:15:02.830Z,99.99
2022-10-10T00:16:02.847Z,99.99
2022-10-10T00:17:02.671Z,99.99
2022-10-10T00:18:02.583Z,99.99
2022-10-10T00:19:02.505Z,99.99
2022-10-10T00:20:02.421Z,99.99
2022-10-10T00:21:02.340Z,99.99
2022-10-10T00:22:02.254Z,99.99
2022-10-10T00:23:02.176Z,99.99
2022-10-10T00:24:02.091Z,99.99
2022-10-10T00:25:02.027Z,99.99
2022-10-10T00:26:05.600Z,99.99
2022-10-10T00:27:01.847Z,99.99
2022-10-10T00:28:01.761Z,99.99
2022-10-10T00:29:01.678Z,99.99
2022-10-10T00:30:01.604Z,99.99
2022-10-10T00:31:01.615Z,99.99
2022-10-10T00:32:01.431Z,99.99
2022-10-10T00:33:01.350Z,99.99
2022-10-10T00:34:01.268Z,99.99
2022-10-10T00:35:01.186Z,99.99
2022-10-10T00:36:01.101Z,99.99
2022-10-10T00:37:01.024Z,99.99
2022-10-10T00:38:00.940Z,99.99
2022-10-10T00:39:00.855Z,99.99
2022-10-10T00:40:00.776Z,99.99
2022-10-10T00:41:00.807Z,99.99
2022-10-10T00:42:00.612Z,99.99
2022-10-10T00:43:00.527Z,99.99
2022-10-10T00:44:00.445Z,99.93
2022-10-10T00:45:00.362Z,99.99
2022-10-10T00:46:00.284Z,99.99
2022-10-10T00:47:00.197Z,99.99
2022-10-10T00:48:00.119Z,99.99
2022-10-10T00:49:00.034Z,99.99
2022-10-10T00:49:59.951Z,99.99
2022-10-10T00:50:59.869Z,99.99
2022-10-10T00:51:59.788Z,99.99
2022-10-10T00:52:59.708Z,99.99
2022-10-10T00:53:59.623Z,99.97
2022-10-10T00:54:59.540Z,99.88
2022-10-10T00:55:59.455Z,99.78
2022-10-10T00:56:59.393Z,99.45
2022-10-10T00:57:59.294Z,99.21
2022-10-10T00:58:59.209Z,99.16
2022-10-10T00:59:59.128Z,99.26
2022-10-10T01:00:59.419Z,97.74
2022-10-10T01:01:58.965Z,96.98
2022-10-10T01:02:58.880Z,97.17
2022-10-10T01:03:58.801Z,96.69
2022-10-10T01:04:58.718Z,96.98
2022-10-10T01:05:58.636Z,96.69
2022-10-10T01:06:58.549Z,96.79
2022-10-10T01:07:58.472Z,97.36
2022-10-10T01:08:58.391Z,97.64
2022-10-10T01:09:58.305Z,98.22
2022-10-10T01:10:58.221Z,98.41
2022-10-10T01:11:58.144Z,98.69
2022-10-10T01:12:58.121Z,99.07
2022-10-10T01:13:57.976Z,99.36
2022-10-10T01:14:57.892Z,99.36
2022-10-10T01:15:57.813Z,99.07
2022-10-10T01:16:57.734Z,99.64
2022-10-10T01:17:57.647Z,99.99
2022-10-10T01:18:57.564Z,99.99
2022-10-10T01:19:57.482Z,99.93
2022-10-10T01:20:57.403Z,99.99
2022-10-10T01:21:57.318Z,99.99
2022-10-10T01:22:57.235Z,99.99
2022-10-10T01:23:57.154Z,99.36
2022-10-10T01:24:57.071Z,98.88
2022-10-10T01:25:56.990Z,98.88
2022-10-10T01:26:56.909Z,98.79
2022-10-10T01:27:56.825Z,98.97
2022-10-10T01:28:56.763Z,98.79
2022-10-10T01:29:56.660Z,98.12
2022-10-10T01:30:56.577Z,98.03
2022-10-10T01:31:56.494Z,97.45
2022-10-10T01:32:56.412Z,97.55
2022-10-10T01:33:56.331Z,96.98
2022-10-10T01:34:56.248Z,96.45
2022-10-10T01:36:48.831Z,96.31
2022-10-10T01:37:48.748Z,95.89
2022-10-10T01:38:48.666Z,96.12
2022-10-10T01:39:48.584Z,95.60
2022-10-10T01:40:48.503Z,95.08
2022-10-10T01:41:48.422Z,94.13
2022-10-10T01:42:48.744Z,94.22
2022-10-10T01:43:48.254Z,93.84
2022-10-10T01:44:48.189Z,94.32
2022-10-10T01:45:48.089Z,93.94
2022-10-10T01:46:48.006Z,93.55
2022-10-10T01:47:47.925Z,92.89
2022-10-10T01:48:47.841Z,92.89
2022-10-10T01:49:47.761Z,92.61
2022-10-10T01:50:47.677Z,92.32
2022-10-10T01:51:47.598Z,92.89
2022-10-10T01:52:47.710Z,93.08
2022-10-10T01:53:47.434Z,92.99
2022-10-10T01:54:47.350Z,93.08
2022-10-10T01:55:47.268Z,93.18
2022-10-10T02:59:33.033Z,94.65
2022-10-10T03:00:32.933Z,94.56
2022-10-10T03:01:32.884Z,94.74
2022-10-10T03:02:32.770Z,93.99
2022-10-10T03:03:32.974Z,93.89
2022-10-10T03:04:32.810Z,93.32
2022-10-10T03:05:32.525Z,93.04
2022-10-10T03:06:32.442Z,92.66
2022-10-10T03:07:32.358Z,91.89
2022-10-10T03:08:32.310Z,92.08
2022-10-10T03:09:32.228Z,91.42
2022-10-10T03:10:32.147Z,91.61
2022-10-10T03:11:32.265Z,91.23
2022-10-10T03:12:31.982Z,90.85
2022-10-10T03:13:31.898Z,90.85
2022-10-10T03:14:31.819Z,91.04
2022-10-10T03:15:31.959Z,91.04
2022-10-10T03:16:31.654Z,90.85
2022-10-10T03:17:31.973Z,90.66
2022-10-10T03:18:31.692Z,90.37
2022-10-10T03:20:31.526Z,89.71
2022-10-10T03:21:31.244Z,89.52
2022-10-10T03:23:31.124Z,89.61
2022-10-10T03:24:30.999Z,88.57
2022-10-10T03:25:31.113Z,88.95
2022-10-10T03:26:30.829Z,88.47
2022-10-10T03:28:30.921Z,88.28
2022-10-10T03:29:30.578Z,88.47
2022-10-10T03:30:30.709Z,88.28
2022-10-10T03:31:30.415Z,88.09
2022-10-10T03:33:30.866Z,88.47
2022-10-10T03:34:30.375Z,88.19
2022-10-10T03:35:30.494Z,88.67
2022-10-10T03:36:30.006Z,89.04
2022-10-10T03:37:30.126Z,88.95
2022-10-10T03:38:30.354Z,88.76
2022-10-10T03:40:30.484Z,88.09
2022-10-10T03:42:29.715Z,87.43
2022-10-10T03:43:29.634Z,87.90
2022-10-10T03:46:29.655Z,87.24
2022-10-10T03:47:29.123Z,86.57
2022-10-10T03:49:29.245Z,86.86
2022-10-10T03:50:29.056Z,87.05
2022-10-10T03:51:29.685Z,86.38
2022-10-10T03:53:28.571Z,86.47
2022-10-10T03:54:28.492Z,85.72
2022-10-10T03:55:28.406Z,85.62
2022-10-10T03:56:28.320Z,85.62
2022-10-10T03:57:28.238Z,85.91
2022-10-10T03:58:28.159Z,85.72
2022-10-10T03:59:28.074Z,85.53
2022-10-10T04:00:27.992Z,85.72
2022-10-10T04:01:27.957Z,85.81
2022-10-10T04:02:27.828Z,85.62
2022-10-10T04:03:27.761Z,84.77
2022-10-10T04:04:27.664Z,85.15
2022-10-10T04:05:27.578Z,83.72
2022-10-10T04:06:27.500Z,83.72
2022-10-10T04:07:27.413Z,83.82
2022-10-10T04:08:27.332Z,83.34
2022-10-10T04:09:27.246Z,83.44
2022-10-10T04:10:27.166Z,83.53
2022-10-10T04:11:27.082Z,83.34
2022-10-10T04:12:27.049Z,83.34
2022-10-10T04:13:26.915Z,83.25
2022-10-10T04:14:26.838Z,83.53
2022-10-10T04:15:26.750Z,83.53
2022-10-10T04:16:26.673Z,83.34
2022-10-10T04:17:26.587Z,82.96
2022-10-10T04:18:26.503Z,82.39
2022-10-10T04:19:26.441Z,82.01
2022-10-10T04:20:26.342Z,81.82
2022-10-10T04:21:26.258Z,81.82
2022-10-10T04:22:26.174Z,81.44
2022-10-10T04:23:26.090Z,81.63
2022-10-10T04:24:26.010Z,81.63
2022-10-10T04:25:25.924Z,81.54
2022-10-10T04:26:25.847Z,81.92
2022-10-10T04:27:25.762Z,81.92
2022-10-10T04:28:25.740Z,82.39
2022-10-10T04:29:25.594Z,81.92
2022-10-10T04:30:25.517Z,81.73
2022-10-10T04:31:25.429Z,81.73
2022-10-10T04:32:25.359Z,81.63
2022-10-10T04:33:25.267Z,80.96
2022-10-10T04:34:25.387Z,81.25
2022-10-10T04:35:25.120Z,80.96
2022-10-10T04:36:25.017Z,80.96
2022-10-10T04:37:25.134Z,80.96
2022-10-10T04:38:25.005Z,81.16
2022-10-10T04:39:24.769Z,80.96
2022-10-10T04:40:26.809Z,81.16
2022-10-10T04:41:24.606Z,80.58
2022-10-10T04:42:24.529Z,80.40
2022-10-10T04:43:24.440Z,79.83
2022-10-10T04:44:24.358Z,80.49
2022-10-10T04:45:24.376Z,80.58
2022-10-10T04:46:24.196Z,80.49
2022-10-10T04:47:24.112Z,80.49
2022-10-10T04:48:24.030Z,80.40
2022-10-10T04:49:24.044Z,79.63
2022-10-10T04:50:23.864Z,79.54
2022-10-10T04:51:23.797Z,79.63
2022-10-10T04:52:23.699Z,79.54
2022-10-10T04:53:23.618Z,79.35
2022-10-10T04:54:23.536Z,80.58
2022-10-10T04:55:23.450Z,80.21
2022-10-10T04:56:23.369Z,80.49
2022-10-10T04:57:23.284Z,80.96
2022-10-10T04:58:23.205Z,80.11
2022-10-10T04:59:23.120Z,79.73
2022-10-10T05:00:23.039Z,79.63
2022-10-10T05:01:23.002Z,79.54
2022-10-10T05:02:22.875Z,79.73
2022-10-10T05:03:22.793Z,80.11
2022-10-10T05:04:22.710Z,79.54
2022-10-10T05:05:22.629Z,79.44
2022-10-10T05:06:22.546Z,78.88
2022-10-10T05:07:22.478Z,79.06
2022-10-10T05:08:22.381Z,79.25
2022-10-10T05:09:22.478Z,79.44
2022-10-10T05:10:22.218Z,79.54
2022-10-10T05:11:22.137Z,79.73
2022-10-10T05:12:22.050Z,79.83
2022-10-10T05:13:21.966Z,79.54
2022-10-10T05:14:21.888Z,79.35
2022-10-10T05:15:21.805Z,78.69
2022-10-10T05:16:21.721Z,78.97
2022-10-10T05:17:21.888Z,78.97
2022-10-10T05:18:21.557Z,79.35
2022-10-10T05:19:21.473Z,79.25
2022-10-10T05:20:21.394Z,78.97
2022-10-10T05:21:21.308Z,78.21
2022-10-10T05:22:22.046Z,78.59
2022-10-10T05:23:21.310Z,78.21
2022-10-10T05:24:21.064Z,78.30
2022-10-10T05:25:20.977Z,78.11
2022-10-10T05:26:20.901Z,78.11
2022-10-10T05:27:20.817Z,78.21
2022-10-10T05:28:20.782Z,78.21
2022-10-10T05:29:20.650Z,77.68
2022-10-10T05:30:20.570Z,77.87
2022-10-10T05:31:20.487Z,77.58
2022-10-10T05:32:20.405Z,77.49
2022-10-10T05:33:20.324Z,77.20
2022-10-10T05:34:20.238Z,77.11
2022-10-10T05:35:20.256Z,76.73
2022-10-10T05:36:20.074Z,76.44
2022-10-10T05:37:19.994Z,76.73
2022-10-10T05:38:19.911Z,76.73
2022-10-10T05:39:19.842Z,76.54
2022-10-10T05:40:19.745Z,76.44
2022-10-10T05:41:19.663Z,76.25
2022-10-10T05:42:19.582Z,76.54
2022-10-10T05:43:19.496Z,75.96
2022-10-10T05:44:19.417Z,75.78
2022-10-10T05:45:19.334Z,75.49
2022-10-10T05:46:19.256Z,75.49
2022-10-10T05:47:19.169Z,75.78
2022-10-10T05:48:19.090Z,75.05
2022-10-10T05:49:19.010Z,74.87
2022-10-10T05:50:18.924Z,74.54
2022-10-10T05:51:18.842Z,74.92
2022-10-10T05:52:18.762Z,74.73
2022-10-10T05:53:18.840Z,75.40
2022-10-10T05:54:18.597Z,75.40
2022-10-10T05:55:18.534Z,75.78
2022-10-10T05:56:18.433Z,75.59
2022-10-10T05:57:18.354Z,75.78
2022-10-10T05:58:18.275Z,75.68
2022-10-10T05:59:18.185Z,76.01
2022-10-10T06:00:18.106Z,75.43
2022-10-10T06:01:18.028Z,75.62
2022-10-10T06:02:18.020Z,75.34
2022-10-10T06:03:17.865Z,75.24
2022-10-10T06:04:17.781Z,75.78
2022-10-10T06:05:17.699Z,75.81
2022-10-10T06:06:17.617Z,75.53
2022-10-10T06:07:17.533Z,76.10
2022-10-10T06:08:17.451Z,76.16
2022-10-10T06:09:17.370Z,76.06
2022-10-10T06:10:17.288Z,76.44
2022-10-10T06:11:17.225Z,76.20
2022-10-10T06:12:17.125Z,76.39
2022-10-10T06:13:21.580Z,76.01
2022-10-10T06:14:16.960Z,75.62
2022-10-10T06:15:16.878Z,75.43
2022-10-10T06:16:16.806Z,74.87
2022-10-10T06:17:16.720Z,75.05
2022-10-10T06:18:16.634Z,74.67
2022-10-10T06:19:16.552Z,74.10
2022-10-10T06:20:16.522Z,74.58
2022-10-10T06:21:16.388Z,74.39
2022-10-10T06:22:16.310Z,74.58
2022-10-10T06:23:16.225Z,74.48
2022-10-10T06:24:16.143Z,74.48
2022-10-10T06:25:38.438Z,74.10
2022-10-10T06:26:15.980Z,74.20
2022-10-10T06:27:15.917Z,73.72
2022-10-10T06:28:15.840Z,73.53
2022-10-10T06:29:15.735Z,73.63
2022-10-10T06:30:15.659Z,73.57
2022-10-10T06:31:15.571Z,73.44
2022-10-10T06:32:15.491Z,73.53
2022-10-10T06:33:15.409Z,74.10
2022-10-10T06:34:15.328Z,74.20
2022-10-10T06:35:15.244Z,74.39
2022-10-10T06:36:15.166Z,74.33
2022-10-10T06:37:15.085Z,74.29
2022-10-10T06:38:15.015Z,74.62
2022-10-10T06:39:14.922Z,74.80
2022-10-10T06:40:14.843Z,74.71
2022-10-10T06:41:14.761Z,74.80
2022-10-10T06:42:14.680Z,74.04
2022-10-10T06:43:14.619Z,73.10
2022-10-10T06:44:14.515Z,72.71
2022-10-10T06:45:14.435Z,72.08
2022-10-10T06:46:14.354Z,72.37
2022-10-10T06:47:14.271Z,71.80
2022-10-10T06:48:14.193Z,71.42
2022-10-10T06:49:14.108Z,71.51
2022-10-10T06:50:14.029Z,71.32
2022-10-10T06:51:13.956Z,71.98
2022-10-10T06:52:14.019Z,71.98
2022-10-10T06:53:13.787Z,72.17
2022-10-10T06:54:13.706Z,71.89
2022-10-10T06:55:13.621Z,72.85
2022-10-10T06:56:13.543Z,72.85
2022-10-10T06:57:13.463Z,72.94
2022-10-10T06:58:13.382Z,73.61
2022-10-10T06:59:13.320Z,73.13
2022-10-10T07:00:13.222Z,74.21
2022-10-10T07:01:13.221Z,74.88
2022-10-10T07:02:13.061Z,74.79
2022-10-10T07:03:12.980Z,74.79
2022-10-10T07:04:12.900Z,74.88
2022-10-10T07:05:12.818Z,75.55
2022-10-10T07:06:12.741Z,75.84
2022-10-10T07:07:12.658Z,76.03
2022-10-10T07:08:12.579Z,76.21
2022-10-10T07:09:12.499Z,76.50
2022-10-10T07:10:12.420Z,76.69
2022-10-10T07:11:54.819Z,78.12
2022-10-10T07:12:54.935Z,78.31
2022-10-10T07:13:54.657Z,79.17
2022-10-10T07:14:54.599Z,79.07
2022-10-10T07:15:54.501Z,79.93
2022-10-10T07:16:54.420Z,79.83
2022-10-10T07:17:54.570Z,80.02
2022-10-10T07:18:54.259Z,80.02
2022-10-10T07:19:54.179Z,80.41
2022-10-10T07:20:54.251Z,80.60
2022-10-10T07:21:54.021Z,80.64
2022-10-10T07:22:54.224Z,80.35
2022-10-10T07:23:53.858Z,80.83
2022-10-10T07:24:53.783Z,80.26
2022-10-10T07:25:53.700Z,80.73
2022-10-10T07:26:59.598Z,81.88
2022-10-10T07:27:53.542Z,82.17
2022-10-10T07:28:53.463Z,83.02
2022-10-10T07:29:53.382Z,83.69
2022-10-10T07:30:53.325Z,83.50
2022-10-10T07:31:53.221Z,84.26
2022-10-10T07:32:53.522Z,84.92
2022-10-10T07:33:53.065Z,85.16
2022-10-10T07:34:52.985Z,85.73
2022-10-10T07:35:52.906Z,86.49
2022-10-10T07:36:52.829Z,87.07
2022-10-10T07:37:52.750Z,87.64
2022-10-10T07:38:52.669Z,88.31
2022-10-10T07:39:52.590Z,89.07
2022-10-10T07:40:52.512Z,89.36
2022-10-10T07:41:52.431Z,89.93
2022-10-10T07:42:52.644Z,90.69
2022-10-10T07:43:52.274Z,90.79
2022-10-10T07:44:52.233Z,91.50
2022-10-10T07:45:52.204Z,92.26
2022-10-10T07:46:52.316Z,92.74
2022-10-10T07:47:52.351Z,92.83
2022-10-10T07:48:51.883Z,94.17
2022-10-10T07:49:51.804Z,94.36
2022-10-10T07:50:51.758Z,95.70
2022-10-10T07:51:51.677Z,95.89
2022-10-10T07:52:51.569Z,95.98
2022-10-10T07:53:51.489Z,96.08
2022-10-10T07:54:51.408Z,99.18
2022-10-10T07:55:51.332Z,99.99
2022-10-10T07:56:51.255Z,99.99
2022-10-10T07:57:53.441Z,99.99
2022-10-10T07:58:51.440Z,99.99
2022-10-10T07:59:51.017Z,99.99
2022-10-10T08:00:50.955Z,99.99
2022-10-10T08:01:51.011Z,99.99
2022-10-10T08:02:50.901Z,99.99
2022-10-10T08:03:50.706Z,99.99
2022-10-10T08:04:50.627Z,99.99
2022-10-10T08:05:50.549Z,99.99
2022-10-10T08:06:50.473Z,99.99
2022-10-10T08:07:50.749Z,99.99
2022-10-10T08:08:51.874Z,99.99
2022-10-10T08:09:50.236Z,99.99
2022-10-10T08:10:50.158Z,99.99
2022-10-10T08:11:50.077Z,99.99
2022-10-10T08:12:50.010Z,99.99
2022-10-10T08:13:49.923Z,99.99
2022-10-10T08:14:49.844Z,99.99
2022-10-10T08:15:49.769Z,99.99
2022-10-10T08:16:49.692Z,99.99
2022-10-10T08:17:49.962Z,99.99
2022-10-10T08:18:49.552Z,99.99
2022-10-10T08:19:49.459Z,99.99
2022-10-10T08:20:49.380Z,99.99
2022-10-10T08:21:49.307Z,99.99
2022-10-10T08:22:49.529Z,99.99
2022-10-10T08:23:49.149Z,99.99
2022-10-10T08:24:49.069Z,99.99
2022-10-10T08:25:48.993Z,99.99
2022-10-10T08:26:48.916Z,99.99
2022-10-10T08:27:48.835Z,99.99
2022-10-10T08:28:48.994Z,99.99
2022-10-10T08:29:48.682Z,99.99
2022-10-10T08:30:48.605Z,99.99
2022-10-10T08:31:48.539Z,99.99
2022-10-10T08:32:48.741Z,99.99
2022-10-10T08:33:48.375Z,99.99
2022-10-10T08:34:48.316Z,99.99
2022-10-10T08:35:48.216Z,99.99
2022-10-10T08:36:48.139Z,99.99
2022-10-10T08:37:48.062Z,99.99
2022-10-10T08:38:48.083Z,99.99
2022-10-10T08:39:47.909Z,99.99
2022-10-10T08:40:47.830Z,99.99
2022-10-10T08:41:47.952Z,99.99
2022-10-10T08:42:52.492Z,99.99
2022-10-10T08:43:47.599Z,99.99
2022-10-10T08:44:47.522Z,99.99
2022-10-10T08:45:47.442Z,99.99
2022-10-10T08:46:47.365Z,99.99
2022-10-10T08:47:47.289Z,99.99
2022-10-10T08:48:47.213Z,99.99
2022-10-10T08:49:47.135Z,99.99
2022-10-10T08:50:47.116Z,99.99
2022-10-10T08:51:46.977Z,99.99
2022-10-10T08:52:46.901Z,99.99
2022-10-10T08:53:46.828Z,99.99
2022-10-10T08:54:46.745Z,99.99
2022-10-10T08:55:46.666Z,99.99
2022-10-10T08:56:46.593Z,99.99
2022-10-10T08:57:46.511Z,99.99
2022-10-10T08:58:46.436Z,99.99
2022-10-10T08:59:46.375Z,99.99
2022-10-10T09:00:46.334Z,99.99
2022-10-10T09:02:18.975Z,99.99
2022-10-10T09:03:03.157Z,99.99
2022-10-10T09:03:46.050Z,99.99
2022-10-10T09:04:45.972Z,99.99
2022-10-10T09:05:45.892Z,99.99
2022-10-10T09:06:45.838Z,99.99
2022-10-10T09:07:45.740Z,99.99
2022-10-10T09:08:45.663Z,99.99
2022-10-10T09:09:45.583Z,99.99
2022-10-10T09:10:45.507Z,99.99
2022-10-10T09:11:45.429Z,99.99
2022-10-10T09:12:45.356Z,99.99
2022-10-10T09:13:45.276Z,99.99
2022-10-10T09:14:45.197Z,99.99
2022-10-10T09:15:45.120Z,99.99
2022-10-10T09:16:45.044Z,99.99
2022-10-10T09:17:44.971Z,99.99
2022-10-10T09:18:44.891Z,99.99
2022-10-10T09:19:44.813Z,99.99
2022-10-10T09:20:44.737Z,99.99
2022-10-10T09:21:44.658Z,99.99
2022-10-10T09:22:44.611Z,99.99
2022-10-10T09:23:44.508Z,99.99
2022-10-10T09:24:44.430Z,99.99
2022-10-10T09:25:44.352Z,99.99
2022-10-10T09:26:44.281Z,99.99
2022-10-10T09:27:44.196Z,99.99
2022-10-10T09:28:44.233Z,99.99
2022-10-10T09:29:44.048Z,99.99
2022-10-10T09:30:43.970Z,99.99
2022-10-10T09:31:43.891Z,99.99
2022-10-10T09:32:43.814Z,99.99
2022-10-10T09:33:43.790Z,99.99
2022-10-10T09:34:43.664Z,99.99
2022-10-10T09:35:43.585Z,99.99
2022-10-10T09:36:43.508Z,99.99
2022-10-10T09:37:47.193Z,99.99
2022-10-10T09:38:43.396Z,99.99
2022-10-10T09:39:43.283Z,99.99
2022-10-10T09:40:43.201Z,99.99
2022-10-10T09:41:43.126Z,99.99
2022-10-10T09:42:43.049Z,99.99
2022-10-10T09:43:42.975Z,99.99
2022-10-10T09:44:42.901Z,99.99
2022-10-10T09:45:43.020Z,99.99
2022-10-10T09:46:42.948Z,99.99
2022-10-10T09:47:42.668Z,99.99
2022-10-10T09:48:42.597Z,99.99
2022-10-10T09:49:42.514Z,99.99
2022-10-10T09:50:43.895Z,99.99
2022-10-10T09:51:42.365Z,99.99
2022-10-10T09:52:42.287Z,99.99
2022-10-10T09:53:42.213Z,99.99
2022-10-10T09:55:42.319Z,99.99
2022-10-10T09:56:42.016Z,99.99
2022-10-10T09:57:42.348Z,99.99
2022-10-10T09:58:41.830Z,99.99
2022-10-10T09:59:41.788Z,99.99
2022-10-10T10:01:41.601Z,99.99
2022-10-10T10:02:41.529Z,99.99
2022-10-10T10:03:41.453Z,99.99
2022-10-10T10:04:41.375Z,99.99
2022-10-10T10:05:41.347Z,99.99
2022-10-10T10:06:41.222Z,99.99
2022-10-10T10:07:41.144Z,99.99
2022-10-10T10:08:41.071Z,99.99
2022-10-10T10:09:40.996Z,99.99
2022-10-10T10:10:40.919Z,99.99
2022-10-10T10:11:40.858Z,99.99
2022-10-10T10:12:40.770Z,99.99
2022-10-10T10:13:40.693Z,99.99
2022-10-10T10:14:40.717Z,99.99
2022-10-10T10:15:40.546Z,99.99
2022-10-10T10:16:40.464Z,99.99
2022-10-10T10:17:40.387Z,99.99
2022-10-10T10:18:40.316Z,99.99
2022-10-10T10:19:40.246Z,99.99
2022-10-10T10:20:40.161Z,99.99
2022-10-10T10:21:40.085Z,99.99
2022-10-10T10:22:40.073Z,99.99
2022-10-10T10:23:39.936Z,99.99
2022-10-10T10:24:39.859Z,99.99
2022-10-10T10:25:39.784Z,99.99
2022-10-10T10:26:39.716Z,99.99
2022-10-10T10:27:39.648Z,99.99
2022-10-10T10:28:39.655Z,99.99
2022-10-10T10:29:39.482Z,99.99
2022-10-10T10:30:39.404Z,99.99
2022-10-10T10:31:42.735Z,99.99
2022-10-10T10:32:39.257Z,99.99
2022-10-10T10:33:39.180Z,99.99
2022-10-10T10:34:39.114Z,99.99
2022-10-10T10:35:39.028Z,99.99
2022-10-10T10:36:38.954Z,99.99
2022-10-10T10:37:38.880Z,99.99
2022-10-10T10:38:38.803Z,99.99
2022-10-10T10:39:38.727Z,99.99
2022-10-10T10:40:38.654Z,99.99
2022-10-10T10:41:38.578Z,99.99
2022-10-10T10:42:38.504Z,99.99
2022-10-10T10:43:38.443Z,99.99
2022-10-10T10:44:38.355Z,99.99
2022-10-10T10:45:38.280Z,99.99
2022-10-10T10:46:38.201Z,99.99
2022-10-10T10:48:38.053Z,99.99
2022-10-10T10:49:37.977Z,99.99
2022-10-10T10:50:37.902Z,99.99
2022-10-10T10:51:37.826Z,99.99
2022-10-10T10:52:37.752Z,99.99
2022-10-10T10:53:37.678Z,99.99
2022-10-10T10:54:40.252Z,99.99
2022-10-10T10:55:39.475Z,99.99
2022-10-10T10:56:37.455Z,99.99
2022-10-10T10:57:51.654Z,99.99
2022-10-10T10:59:09.841Z,99.99
2022-10-10T11:00:25.584Z,99.99
2022-10-10T11:01:56.929Z,99.99
2022-10-10T11:02:55.310Z,99.99
2022-10-10T11:05:15.807Z,99.99
2022-10-10T11:05:18.838Z,99.99
2022-10-10T11:05:41.290Z,99.99
2022-10-10T11:06:42.107Z,99.99
2022-10-10T11:07:36.848Z,99.99
2022-10-10T11:08:36.565Z,99.99
2022-10-10T11:09:51.849Z,99.99
2022-10-10T11:10:36.416Z,99.99
2022-10-10T11:11:36.342Z,99.99
2022-10-10T11:12:36.308Z,99.99
2022-10-10T11:13:36.195Z,99.99
2022-10-10T11:14:36.120Z,99.99
2022-10-10T11:16:04.914Z,99.99
2022-10-10T11:16:47.947Z,99.99
2022-10-10T11:17:37.320Z,99.99
2022-10-10T11:18:35.827Z,99.99
2022-10-10T11:19:35.753Z,99.99
2022-10-10T11:20:35.679Z,99.99
2022-10-10T11:21:35.606Z,99.99
2022-10-10T11:22:35.531Z,99.99
2022-10-10T11:24:28.000Z,99.99
2022-10-10T11:25:27.879Z,99.99
2022-10-10T11:26:27.805Z,99.99
2022-10-10T11:27:27.732Z,99.99
2022-10-10T11:28:27.731Z,99.99
2022-10-10T11:29:27.585Z,99.99
2022-10-10T11:30:27.512Z,99.99
2022-10-10T11:31:27.555Z,99.99
2022-10-10T11:32:27.365Z,99.99
2022-10-10T11:34:14.834Z,98.97
2022-10-10T11:35:14.761Z,97.96
2022-10-10T11:36:14.686Z,95.98
2022-10-10T11:37:14.821Z,93.85
2022-10-10T11:38:14.545Z,94.39
2022-10-10T11:39:15.662Z,95.26
2022-10-10T11:40:14.401Z,95.54
2022-10-10T11:41:14.329Z,92.41
2022-10-10T11:42:16.879Z,93.76
2022-10-10T11:43:14.337Z,94.20
2022-10-10T11:44:14.115Z,95.60
2022-10-10T11:45:14.043Z,96.27
2022-10-10T11:46:14.077Z,96.66
2022-10-10T11:47:13.917Z,97.52
2022-10-10T11:48:13.867Z,98.44
2022-10-10T11:49:13.757Z,97.67
2022-10-10T11:50:13.683Z,96.61
2022-10-10T11:52:41.134Z,91.00
2022-10-10T11:53:41.065Z,88.68
2022-10-10T11:54:40.993Z,86.65
2022-10-10T11:55:40.924Z,87.23
2022-10-10T11:56:40.853Z,86.79
2022-10-10T11:57:40.790Z,85.78
2022-10-10T11:58:40.714Z,85.83
2022-10-10T11:59:40.647Z,84.71
2022-10-10T12:00:40.576Z,84.27
2022-10-10T12:01:40.506Z,83.63
2022-10-10T12:02:40.458Z,83.44
2022-10-10T12:03:40.372Z,82.32
2022-10-10T12:04:40.302Z,81.21
2022-10-10T12:05:40.386Z,82.04
2022-10-10T12:09:06.082Z,81.87
2022-10-10T12:19:44.184Z,79.43
2022-10-10T12:20:44.100Z,80.01
2022-10-10T12:21:44.032Z,80.20
2022-10-10T12:22:44.222Z,79.27
2022-10-10T12:23:43.904Z,78.89
2022-10-10T12:24:47.301Z,79.02
2022-10-10T12:25:43.773Z,77.86
2022-10-10T12:26:43.711Z,78.05
2022-10-10T12:28:46.255Z,78.79
2022-10-10T12:29:50.863Z,77.76
2022-10-10T12:30:46.023Z,77.42
2022-10-10T12:33:13.540Z,76.45
2022-10-10T12:34:13.476Z,77.32
2022-10-10T12:35:13.429Z,76.51
2022-10-10T12:36:13.349Z,76.74
2022-10-10T12:37:13.697Z,77.26
2022-10-10T12:38:14.026Z,76.00
2022-10-10T12:39:13.155Z,74.57
2022-10-10T12:40:13.094Z,74.96
2022-10-10T12:41:13.034Z,77.55
2022-10-10T12:42:12.965Z,75.71
2022-10-10T12:43:12.898Z,74.80
2022-10-10T12:44:15.456Z,75.09
2022-10-10T12:45:12.775Z,77.32
2022-10-10T12:46:12.707Z,75.51
2022-10-10T12:47:12.643Z,74.84
2022-10-10T12:48:12.586Z,74.51
2022-10-10T12:49:12.520Z,74.22
2022-10-10T12:50:12.454Z,76.54
2022-10-10T12:51:12.604Z,76.48
2022-10-10T12:52:12.331Z,75.57
2022-10-10T12:53:12.262Z,75.03
2022-10-10T12:54:12.199Z,74.84
2022-10-10T12:55:12.137Z,73.86
2022-10-10T12:56:12.073Z,73.86
2022-10-10T12:57:12.009Z,73.32
2022-10-10T12:58:20.895Z,74.49
2022-10-10T12:59:11.883Z,74.00
2022-10-10T13:00:11.820Z,73.97
2022-10-10T13:01:11.809Z,73.00
2022-10-10T13:02:11.701Z,73.36
2022-10-10T13:03:11.631Z,74.58
2022-10-10T13:04:11.569Z,76.23
2022-10-10T13:05:11.503Z,76.27
2022-10-10T13:06:11.440Z,75.01
2022-10-10T13:07:11.396Z,74.97
2022-10-10T13:08:11.315Z,76.79
2022-10-10T13:09:11.254Z,75.95
2022-10-10T13:10:11.189Z,73.37
2022-10-10T13:11:11.127Z,71.29
2022-10-10T13:12:11.066Z,72.19
2022-10-10T13:13:11.001Z,74.37
2022-10-10T13:14:10.944Z,75.40
2022-10-10T13:15:10.875Z,73.42
2022-10-10T13:16:10.815Z,74.10
2022-10-10T13:17:10.749Z,74.80
2022-10-10T13:18:10.689Z,74.76
2022-10-10T13:19:10.627Z,76.70
2022-10-10T13:20:10.713Z,77.42
2022-10-10T13:21:10.500Z,76.58
2022-10-10T13:22:13.260Z,78.02
2022-10-10T13:23:10.393Z,76.31
2022-10-10T13:24:10.312Z,73.78
2022-10-10T13:25:10.247Z,73.52
2022-10-10T13:26:10.235Z,74.54
2022-10-10T13:27:10.271Z,75.67
2022-10-10T13:28:10.118Z,76.15
2022-10-10T13:29:09.997Z,76.83
2022-10-10T13:30:09.934Z,76.79
2022-10-10T13:31:09.869Z,77.67
2022-10-10T13:32:09.803Z,77.98
2022-10-10T13:33:09.743Z,79.78
2022-10-10T13:34:09.676Z,80.51
2022-10-10T13:35:09.611Z,80.51
2022-10-10T13:36:09.546Z,81.29
2022-10-10T13:37:09.484Z,81.48
2022-10-10T13:38:09.469Z,81.92
2022-10-10T13:39:09.369Z,82.98
2022-10-10T13:40:09.288Z,83.12
2022-10-10T13:41:09.570Z,82.78
2022-10-10T13:42:09.158Z,80.94
2022-10-10T13:43:09.089Z,80.47
2022-10-10T13:44:09.023Z,81.98
2022-10-10T13:45:10.373Z,83.33
2022-10-10T14:09:13.921Z,89.57
2022-10-10T14:10:12.660Z,90.00
2022-10-10T14:11:12.492Z,90.30
2022-10-10T14:12:12.420Z,89.33
2022-10-10T14:13:12.351Z,89.91
2022-10-10T14:14:12.280Z,90.88
2022-10-10T14:15:12.210Z,89.81
2022-10-10T14:16:12.140Z,91.12
2022-10-10T14:17:12.068Z,93.09
2022-10-10T14:18:12.000Z,93.38
2022-10-10T14:19:11.928Z,94.10
2022-10-10T14:20:12.670Z,93.43
2022-10-10T14:21:11.787Z,92.85
2022-10-10T14:22:11.718Z,90.92
2022-10-10T14:23:11.646Z,90.00
2022-10-10T14:24:11.577Z,88.69
2022-10-10T14:25:11.570Z,88.59
2022-10-10T14:26:11.439Z,89.95
2022-10-10T14:27:11.363Z,87.73
2022-10-10T14:28:11.372Z,85.50
2022-10-10T14:29:11.220Z,85.22
2022-10-10T14:30:11.154Z,86.08
2022-10-10T14:31:11.081Z,85.89
2022-10-10T14:32:11.011Z,86.66
2022-10-10T14:33:10.941Z,87.44
2022-10-10T14:34:10.873Z,86.38
2022-10-10T14:35:10.802Z,87.05
2022-10-10T14:36:10.730Z,87.40
2022-10-10T14:37:10.659Z,86.72
2022-10-10T14:38:10.599Z,87.59
2022-10-10T14:39:10.570Z,87.68
2022-10-10T14:40:10.451Z,87.40
2022-10-10T14:41:10.396Z,89.81
2022-10-10T14:42:10.311Z,87.10
2022-10-10T14:43:10.242Z,88.99
2022-10-10T14:44:10.170Z,90.92
2022-10-10T14:45:10.103Z,90.92
2022-10-10T14:46:10.183Z,91.02
2022-10-10T14:47:09.959Z,89.47
2022-10-10T14:48:09.888Z,90.39
2022-10-10T14:49:13.097Z,91.98
2022-10-10T14:50:09.751Z,92.27